Cole Spur, Arkansas
Current Conditions -  °F | °C
As of 10:53 AM on Friday 31 Oct 2014 (Local Time) from KPBF Reporting Station
Clear Clear  
Wind Chill: 59°   Ceiling: Unl
Heat Index: 59°   Visibility: 10mi
Dew Point: 43°   Wind: 21mph
Humidity: 55%   Direction: 10°N
Pressure: 30.19"   Gusts: 30mph
Location:  34.0297°N, 91.5376°W
Report Text: KPBF 311553Z AUTO 01018G26KT 10SM CLR 15/06 A3019 RMK AO2 PK WND 36029/1459 SLP222 T01500061
Loading
Personal Weather Stations






























Interactive Weather Map
Tropical Storm Tracking
New forecast layout! Learn more

10-Day Weather Forecast

Advertisements
Track Severe Weather on mobile